createdAt,value
2019-04-06T00:00:39.126Z,7.20
2019-04-06T00:01:50.011Z,7.20
2019-04-06T00:02:54.629Z,7.20
2019-04-06T00:03:59.314Z,7.20
2019-04-06T00:05:03.963Z,7.20
2019-04-06T00:06:08.825Z,7.20
2019-04-06T00:07:16.444Z,7.20
2019-04-06T00:08:21.094Z,7.20
2019-04-06T00:09:25.790Z,7.20
2019-04-06T00:10:30.578Z,7.20
2019-04-06T00:11:35.245Z,7.20
2019-04-06T00:12:39.932Z,7.30
2019-04-06T00:13:44.585Z,7.30
2019-04-06T00:14:49.239Z,7.30
2019-04-06T00:15:54.012Z,7.30
2019-04-06T00:16:58.607Z,7.30
2019-04-06T00:18:03.263Z,7.30
2019-04-06T00:19:08.056Z,7.20
2019-04-06T00:20:12.890Z,7.20
2019-04-06T00:21:17.547Z,7.30
2019-04-06T00:22:22.290Z,7.20
2019-04-06T00:23:27.034Z,7.20
2019-04-06T00:24:31.719Z,7.10
2019-04-06T00:25:44.452Z,7.20
2019-04-06T00:26:42.984Z,7.10
2019-04-06T00:27:47.547Z,7.20
2019-04-06T00:28:52.204Z,7.20
2019-04-06T00:29:56.793Z,7.20
2019-04-06T00:31:09.033Z,7.20
2019-04-06T00:32:19.474Z,7.20
2019-04-06T00:33:24.227Z,7.20
2019-04-06T00:34:28.834Z,7.20
2019-04-06T00:35:33.470Z,7.20
2019-04-06T00:36:38.210Z,7.20
2019-04-06T00:37:42.829Z,7.10
2019-04-06T00:38:47.651Z,7.10
2019-04-06T00:39:52.479Z,7.10
2019-04-06T00:40:57.183Z,7.20
2019-04-06T00:42:02.028Z,7.20
2019-04-06T00:43:06.886Z,7.20
2019-04-06T00:44:11.665Z,7.20
2019-04-06T00:45:16.645Z,7.20
2019-04-06T00:46:21.417Z,7.20
2019-04-06T00:47:26.074Z,7.10
2019-04-06T00:48:30.768Z,7.20
2019-04-06T00:49:35.421Z,7.10
2019-04-06T00:50:40.083Z,7.10
2019-04-06T00:51:44.836Z,7.20
2019-04-06T00:52:49.530Z,7.20
2019-04-06T00:53:54.161Z,7.20
2019-04-06T00:54:58.839Z,7.20
2019-04-06T00:56:03.508Z,7.20
2019-04-06T00:57:08.288Z,7.20
2019-04-06T00:58:13.017Z,7.20
2019-04-06T00:59:19.053Z,7.20
2019-04-06T01:00:23.833Z,7.10
2019-04-06T01:01:28.463Z,7.20
2019-04-06T01:02:33.071Z,7.20
2019-04-06T01:03:37.719Z,7.20
2019-04-06T01:04:42.339Z,7.20
2019-04-06T01:05:47.084Z,7.20
2019-04-06T01:07:55.790Z,7.10
2019-04-06T01:09:00.451Z,7.20
2019-04-06T01:10:05.219Z,7.10
2019-04-06T01:11:09.956Z,7.20
2019-04-06T01:12:14.616Z,7.10
2019-04-06T01:13:19.353Z,7.10
2019-04-06T01:14:23.981Z,7.20
2019-04-06T01:15:28.666Z,7.10
2019-04-06T01:16:33.260Z,7.10
2019-04-06T01:17:37.911Z,7.10
2019-04-06T01:18:42.605Z,7.20
2019-04-06T01:19:47.416Z,7.20
2019-04-06T01:20:52.276Z,7.20
2019-04-06T01:21:56.878Z,7.10
2019-04-06T01:23:01.544Z,7.20
2019-04-06T01:24:06.218Z,7.10
2019-04-06T01:25:10.951Z,7.10
2019-04-06T01:26:15.682Z,7.20
2019-04-06T01:27:20.408Z,7.20
2019-04-06T01:28:25.021Z,7.20
2019-04-06T01:29:29.733Z,7.20
2019-04-06T01:30:34.363Z,7.10
2019-04-06T01:31:39.064Z,7.20
2019-04-06T01:32:43.771Z,7.20
2019-04-06T01:33:48.582Z,7.20
2019-04-06T01:34:53.395Z,7.20
2019-04-06T01:35:58.073Z,7.20
2019-04-06T01:37:02.752Z,7.20
2019-04-06T01:38:07.376Z,7.20
2019-04-06T01:39:12.121Z,7.20
2019-04-06T01:40:16.844Z,7.20
2019-04-06T01:41:21.486Z,7.20
2019-04-06T01:42:26.214Z,7.20
2019-04-06T01:43:30.826Z,7.20
2019-04-06T01:44:35.691Z,7.20
2019-04-06T01:45:40.515Z,7.10
2019-04-06T01:46:45.100Z,7.10
2019-04-06T01:47:49.845Z,7.10
2019-04-06T01:48:54.521Z,7.10
2019-04-06T01:49:59.189Z,7.10
2019-04-06T01:51:03.913Z,7.10
2019-04-06T01:52:08.552Z,7.20
2019-04-06T01:53:13.258Z,7.20
2019-04-06T01:54:17.916Z,7.20
2019-04-06T01:55:22.540Z,7.10
2019-04-06T01:56:27.259Z,7.20
2019-04-06T01:57:31.892Z,7.20
2019-04-06T01:58:36.646Z,7.10
2019-04-06T01:59:41.362Z,7.10
2019-04-06T02:00:59.680Z,7.10
2019-04-06T02:02:18.703Z,7.10
2019-04-06T02:03:23.301Z,7.10
2019-04-06T02:04:27.986Z,7.10
2019-04-06T02:05:32.621Z,7.10
2019-04-06T02:06:37.319Z,7.10
2019-04-06T02:07:42.199Z,7.10
2019-04-06T02:08:46.836Z,7.10
2019-04-06T02:09:51.661Z,7.10
2019-04-06T02:10:56.385Z,7.10
2019-04-06T02:12:01.027Z,7.20
2019-04-06T02:13:05.769Z,7.20
2019-04-06T02:14:10.480Z,7.20
2019-04-06T02:15:15.472Z,7.20
2019-04-06T02:16:20.273Z,7.20
2019-04-06T02:17:24.854Z,7.20
2019-04-06T02:18:29.536Z,7.20
2019-04-06T02:19:34.260Z,7.10
2019-04-06T02:20:38.928Z,7.10
2019-04-06T02:21:43.580Z,7.10
2019-04-06T02:22:48.366Z,7.10
2019-04-06T02:23:52.979Z,7.10
2019-04-06T02:24:57.527Z,7.10
2019-04-06T02:26:02.662Z,7.10
2019-04-06T02:27:07.298Z,7.20
2019-04-06T02:28:12.073Z,7.10
2019-04-06T02:29:16.824Z,7.20
2019-04-06T02:30:31.314Z,7.20
2019-04-06T02:32:04.080Z,7.20
2019-04-06T02:33:27.651Z,7.20
2019-04-06T02:35:09.311Z,7.20
2019-04-06T02:36:38.939Z,7.20
2019-04-06T02:37:49.966Z,7.20
2019-04-06T02:39:12.244Z,7.10
2019-04-06T02:40:34.258Z,7.20
2019-04-06T02:41:45.573Z,7.20
2019-04-06T02:43:00.349Z,7.20
2019-04-06T02:44:04.915Z,7.20
2019-04-06T02:45:09.508Z,7.20
2019-04-06T02:46:13.876Z,7.20
2019-04-06T02:47:18.572Z,7.20
2019-04-06T02:48:23.009Z,7.20
2019-04-06T02:49:27.472Z,7.30
2019-04-06T02:50:32.035Z,7.20
2019-04-06T02:51:36.433Z,7.20
2019-04-06T02:52:40.880Z,7.20
2019-04-06T02:53:45.497Z,7.20
2019-04-06T02:54:50.230Z,7.20
2019-04-06T02:55:55.060Z,7.20
2019-04-06T02:56:59.946Z,7.20
2019-04-06T02:58:04.940Z,7.20
2019-04-06T02:59:10.043Z,7.20
2019-04-06T03:00:15.021Z,7.20
2019-04-06T03:01:19.912Z,7.20
2019-04-06T03:02:24.835Z,7.20
2019-04-06T03:03:29.766Z,7.20
2019-04-06T03:04:34.554Z,7.20
2019-04-06T03:05:39.519Z,7.20
2019-04-06T03:06:44.387Z,7.30
2019-04-06T03:07:49.160Z,7.30
2019-04-06T03:08:54.057Z,7.30
2019-04-06T03:09:58.716Z,7.30
2019-04-06T03:11:03.516Z,7.30
2019-04-06T03:12:08.551Z,7.30
2019-04-06T03:13:13.463Z,7.30
2019-04-06T03:14:18.556Z,7.30
2019-04-06T03:15:23.411Z,7.30
2019-04-06T03:16:28.096Z,7.30
2019-04-06T03:17:32.755Z,7.30
2019-04-06T03:18:37.803Z,7.40
2019-04-06T03:19:42.698Z,7.30
2019-04-06T03:20:47.766Z,7.30
2019-04-06T03:21:52.654Z,7.40
2019-04-06T03:22:57.517Z,7.40
2019-04-06T03:24:02.268Z,7.40
2019-04-06T03:25:07.156Z,7.50
2019-04-06T03:26:11.878Z,7.50
2019-04-06T03:27:16.854Z,7.40
2019-04-06T03:28:21.728Z,7.40
2019-04-06T03:29:26.597Z,7.40
2019-04-06T03:30:31.448Z,7.40
2019-04-06T03:31:36.059Z,7.40
2019-04-06T03:32:40.837Z,7.40
2019-04-06T03:33:48.639Z,7.40
2019-04-06T03:34:53.686Z,7.40
2019-04-06T03:35:58.582Z,7.40
2019-04-06T03:37:03.471Z,7.40
2019-04-06T03:38:10.983Z,7.50
2019-04-06T03:39:15.987Z,7.50
2019-04-06T03:40:20.680Z,7.50
2019-04-06T03:41:25.491Z,7.50
2019-04-06T03:42:30.296Z,7.50
2019-04-06T03:43:34.997Z,7.40
2019-04-06T03:44:39.759Z,7.50
2019-04-06T03:45:44.768Z,7.50
2019-04-06T03:46:49.463Z,7.40
2019-04-06T03:47:54.285Z,7.40
2019-04-06T03:48:59.051Z,7.40
2019-04-06T03:50:04.018Z,7.40
2019-04-06T03:51:08.730Z,7.50
2019-04-06T03:52:13.484Z,7.50
2019-04-06T03:53:18.346Z,7.50
2019-04-06T03:54:23.246Z,7.50
2019-04-06T03:55:28.097Z,7.50
2019-04-06T03:56:32.922Z,7.50
2019-04-06T03:57:37.676Z,7.50
2019-04-06T03:58:42.508Z,7.60
2019-04-06T03:59:47.680Z,7.50
2019-04-06T04:00:52.714Z,7.60
2019-04-06T04:01:57.530Z,7.50
2019-04-06T04:03:02.699Z,7.50
2019-04-06T04:04:07.946Z,7.50
2019-04-06T04:05:12.955Z,7.60
2019-04-06T04:06:17.680Z,7.50
2019-04-06T04:07:22.675Z,7.50
2019-04-06T04:08:27.719Z,7.50
2019-04-06T04:09:35.442Z,7.50
2019-04-06T04:10:40.439Z,7.60
2019-04-06T04:11:45.530Z,7.60
2019-04-06T04:12:50.455Z,7.50
2019-04-06T04:13:55.212Z,7.60
2019-04-06T04:15:00.307Z,7.50
2019-04-06T04:16:05.255Z,7.50
2019-04-06T04:17:10.086Z,7.60
2019-04-06T04:18:15.191Z,7.60
2019-04-06T04:19:19.978Z,7.60
2019-04-06T04:20:24.634Z,7.60
2019-04-06T04:21:29.570Z,7.60
2019-04-06T04:22:35.016Z,7.60
2019-04-06T04:23:40.022Z,7.60
2019-04-06T04:24:45.396Z,7.60
2019-04-06T04:25:50.612Z,7.60
2019-04-06T04:26:55.331Z,7.60
2019-04-06T04:28:00.439Z,7.60
2019-04-06T04:29:05.795Z,7.70
2019-04-06T04:30:11.051Z,7.70
2019-04-06T04:31:15.758Z,7.70
2019-04-06T04:32:20.593Z,7.60
2019-04-06T04:33:25.392Z,7.70
2019-04-06T04:34:30.408Z,7.70
2019-04-06T04:35:35.124Z,7.70
2019-04-06T04:36:39.982Z,7.70
2019-04-06T04:37:44.956Z,7.70
2019-04-06T04:38:49.721Z,7.70
2019-04-06T04:39:54.417Z,7.60
2019-04-06T04:40:59.285Z,7.60
2019-04-06T04:42:04.070Z,7.60
2019-04-06T04:43:08.839Z,7.60
2019-04-06T04:44:14.158Z,7.60
2019-04-06T04:45:19.188Z,7.70
2019-04-06T04:46:24.166Z,7.70
2019-04-06T04:47:29.086Z,7.70
2019-04-06T04:48:33.820Z,7.70
2019-04-06T04:49:38.449Z,7.70
2019-04-06T04:50:43.372Z,7.70
2019-04-06T04:51:48.730Z,7.70
2019-04-06T04:52:53.506Z,7.70
2019-04-06T04:55:02.633Z,7.70
2019-04-06T04:56:07.597Z,7.70
2019-04-06T04:57:12.728Z,7.70
2019-04-06T04:58:17.395Z,7.70
2019-04-06T04:59:22.359Z,7.70
2019-04-06T05:00:27.177Z,7.60
2019-04-06T05:01:31.997Z,7.60
2019-04-06T05:02:36.830Z,7.70
2019-04-06T05:03:41.810Z,7.60
2019-04-06T05:04:46.524Z,7.60
2019-04-06T05:05:51.786Z,7.70
2019-04-06T05:06:56.644Z,7.60
2019-04-06T05:08:01.440Z,7.70
2019-04-06T05:09:07.782Z,7.70
2019-04-06T05:10:13.224Z,7.60
2019-04-06T05:11:17.889Z,7.70
2019-04-06T05:12:22.732Z,7.80
2019-04-06T05:13:28.017Z,7.80
2019-04-06T05:14:57.939Z,7.80
2019-04-06T05:16:11.803Z,7.90
2019-04-06T05:17:16.486Z,7.80
2019-04-06T05:18:21.261Z,7.80
2019-04-06T05:19:26.164Z,7.80
2019-04-06T05:20:30.901Z,7.80
2019-04-06T05:21:35.814Z,7.90
2019-04-06T05:22:40.620Z,7.80
2019-04-06T05:23:45.470Z,7.80
2019-04-06T05:24:50.445Z,7.80
2019-04-06T05:25:55.145Z,7.80
2019-04-06T05:27:00.026Z,7.90
2019-04-06T05:28:04.832Z,7.90
2019-04-06T05:29:09.684Z,7.80
2019-04-06T05:30:14.783Z,7.90
2019-04-06T05:31:19.746Z,7.90
2019-04-06T05:32:24.517Z,7.90
2019-04-06T05:33:29.525Z,7.90
2019-04-06T05:34:34.262Z,7.90
2019-04-06T05:35:39.094Z,8.00
2019-04-06T05:36:43.881Z,7.90
2019-04-06T05:37:49.208Z,8.00
2019-04-06T05:38:54.128Z,8.10
2019-04-06T05:39:58.974Z,8.00
2019-04-06T05:41:03.899Z,8.10
2019-04-06T05:42:09.077Z,8.00
2019-04-06T05:43:14.150Z,8.00
2019-04-06T05:44:18.969Z,8.00
2019-04-06T05:45:23.796Z,8.10
2019-04-06T05:46:28.794Z,8.20
2019-04-06T05:47:33.654Z,8.20
2019-04-06T05:48:38.680Z,8.20
2019-04-06T05:49:43.328Z,8.30
2019-04-06T05:50:48.314Z,8.30
2019-04-06T05:51:53.011Z,8.20
2019-04-06T05:52:57.892Z,8.30
2019-04-06T05:54:02.710Z,8.20
2019-04-06T05:55:07.777Z,8.30
2019-04-06T05:56:12.822Z,8.30
2019-04-06T05:57:17.513Z,8.30
2019-04-06T05:58:22.339Z,8.30
2019-04-06T05:59:27.429Z,8.30
2019-04-06T06:00:32.310Z,8.30
2019-04-06T06:01:40.322Z,8.30
2019-04-06T06:02:43.643Z,8.20
2019-04-06T06:03:48.397Z,8.30
2019-04-06T06:04:53.191Z,8.30
2019-04-06T06:05:57.923Z,8.40
2019-04-06T06:07:02.734Z,8.40
2019-04-06T06:08:08.270Z,8.40
2019-04-06T06:09:13.392Z,8.40
2019-04-06T06:10:18.152Z,8.50
2019-04-06T06:11:23.200Z,8.50
2019-04-06T06:12:27.940Z,8.50
2019-04-06T06:13:33.351Z,8.60
2019-04-06T06:14:38.099Z,8.60
2019-04-06T06:15:43.051Z,8.60
2019-04-06T06:16:47.877Z,8.60
2019-04-06T06:17:54.641Z,8.60
2019-04-06T06:18:59.326Z,8.70
2019-04-06T06:20:04.258Z,8.70
2019-04-06T06:21:09.275Z,8.70
2019-04-06T06:22:14.724Z,8.80
2019-04-06T06:23:19.406Z,8.80
2019-04-06T06:24:24.322Z,8.80
2019-04-06T06:25:29.411Z,8.90
2019-04-06T06:26:34.212Z,9.00
2019-04-06T06:27:39.314Z,9.10
2019-04-06T06:28:44.274Z,9.10
2019-04-06T06:29:49.028Z,9.20
2019-04-06T06:30:54.167Z,9.10
2019-04-06T06:31:59.403Z,9.20
2019-04-06T06:33:04.216Z,9.20
2019-04-06T06:34:09.554Z,9.20
2019-04-06T06:35:14.738Z,9.20
2019-04-06T06:36:19.434Z,9.20
2019-04-06T06:37:24.269Z,9.20
2019-04-06T06:38:29.063Z,9.30
2019-04-06T06:39:33.803Z,9.20
2019-04-06T06:40:38.784Z,9.20
2019-04-06T06:41:43.618Z,9.30
2019-04-06T06:42:48.438Z,9.30
2019-04-06T06:43:53.698Z,9.30
2019-04-06T06:44:58.514Z,9.40
2019-04-06T06:46:03.502Z,9.40
2019-04-06T06:47:08.371Z,9.50
2019-04-06T06:48:13.371Z,9.50
2019-04-06T06:49:18.315Z,9.60
2019-04-06T06:50:23.636Z,9.60
2019-04-06T06:51:28.454Z,9.70
2019-04-06T06:52:33.371Z,9.70
2019-04-06T06:53:38.710Z,9.80
2019-04-06T06:54:43.542Z,9.80
2019-04-06T06:55:48.331Z,9.80
2019-04-06T06:56:53.202Z,9.90
2019-04-06T06:57:58.263Z,9.80
2019-04-06T06:59:03.573Z,9.80
2019-04-06T07:00:09.086Z,9.90
2019-04-06T07:01:14.343Z,10.00
2019-04-06T07:02:19.516Z,10.10
2019-04-06T07:03:24.322Z,10.20
2019-04-06T07:04:29.405Z,10.30
2019-04-06T07:05:34.262Z,10.30
2019-04-06T07:06:39.317Z,10.40
2019-04-06T07:07:44.066Z,10.40
2019-04-06T07:08:49.097Z,10.50
2019-04-06T07:10:04.463Z,10.60
2019-04-06T07:11:00.880Z,10.60
2019-04-06T07:12:05.982Z,10.70
2019-04-06T07:13:10.740Z,10.70
2019-04-06T07:14:18.882Z,10.80
2019-04-06T07:15:23.695Z,10.70
2019-04-06T07:16:28.909Z,10.80
2019-04-06T07:17:33.941Z,10.80
2019-04-06T07:18:38.856Z,10.90
2019-04-06T07:19:43.737Z,10.80
2019-04-06T07:20:48.523Z,10.80
2019-04-06T07:21:55.260Z,10.90
2019-04-06T07:23:00.351Z,10.90
2019-04-06T07:24:05.372Z,11.00
2019-04-06T07:25:10.687Z,11.00
2019-04-06T07:26:15.842Z,11.00
2019-04-06T07:27:20.762Z,10.90
2019-04-06T07:28:37.159Z,10.90
2019-04-06T07:29:32.261Z,10.90
2019-04-06T07:30:37.055Z,10.80
2019-04-06T07:31:41.815Z,10.80
2019-04-06T07:32:46.573Z,10.80
2019-04-06T07:33:54.150Z,10.80
2019-04-06T07:34:59.301Z,10.70
2019-04-06T07:36:04.216Z,10.70
2019-04-06T07:37:09.038Z,10.60
2019-04-06T07:38:14.565Z,10.60
2019-04-06T07:39:19.384Z,10.60
2019-04-06T07:40:24.259Z,10.60
2019-04-06T07:41:29.102Z,10.60
2019-04-06T07:42:34.105Z,10.60
2019-04-06T07:43:39.109Z,10.60
2019-04-06T07:44:43.859Z,10.60
2019-04-06T07:45:49.110Z,10.50
2019-04-06T07:46:54.109Z,10.50
2019-04-06T07:47:59.095Z,10.60
2019-04-06T07:49:09.275Z,10.60
2019-04-06T07:50:11.432Z,10.60
2019-04-06T07:51:16.427Z,10.70
2019-04-06T07:52:21.962Z,10.80
2019-04-06T07:53:26.765Z,10.70
2019-04-06T07:54:31.890Z,10.70
2019-04-06T07:55:37.477Z,10.70
2019-04-06T07:56:42.379Z,10.70
2019-04-06T07:57:47.250Z,10.70
2019-04-06T07:58:52.550Z,10.70
2019-04-06T07:59:57.415Z,10.70
2019-04-06T08:01:02.544Z,10.80
2019-04-06T08:02:07.380Z,10.80
2019-04-06T08:03:12.357Z,10.90
2019-04-06T08:04:17.149Z,10.90
2019-04-06T08:05:22.386Z,10.90
2019-04-06T08:06:27.232Z,10.90
2019-04-06T08:07:32.047Z,10.90
2019-04-06T08:08:37.235Z,11.00
2019-04-06T08:09:42.178Z,10.90
2019-04-06T08:10:47.118Z,11.00
2019-04-06T08:11:52.367Z,11.10
2019-04-06T08:12:57.292Z,11.20
2019-04-06T08:14:02.259Z,11.20
2019-04-06T08:15:07.963Z,11.30
2019-04-06T08:16:13.167Z,11.30
2019-04-06T08:17:17.988Z,11.50
2019-04-06T08:18:22.873Z,11.70
2019-04-06T08:19:27.805Z,11.70
2019-04-06T08:20:32.705Z,11.70
2019-04-06T08:21:37.575Z,11.60
2019-04-06T08:22:42.494Z,11.60
2019-04-06T08:23:47.361Z,11.80
2019-04-06T08:24:52.577Z,11.80
2019-04-06T08:25:57.481Z,11.90
2019-04-06T08:27:02.442Z,11.90
2019-04-06T08:28:08.214Z,12.00
2019-04-06T08:29:13.612Z,12.10
2019-04-06T08:30:19.122Z,12.10
2019-04-06T08:31:24.116Z,12.20
2019-04-06T08:32:29.024Z,12.20
2019-04-06T08:33:33.968Z,12.10
2019-04-06T08:34:38.716Z,12.20
2019-04-06T08:35:43.646Z,12.20
2019-04-06T08:36:48.426Z,12.30
2019-04-06T08:37:53.939Z,12.60
2019-04-06T08:38:59.630Z,12.60
2019-04-06T08:40:05.303Z,12.70
2019-04-06T08:41:10.013Z,13.00
2019-04-06T08:42:15.631Z,13.20
2019-04-06T08:43:20.551Z,13.30
2019-04-06T08:44:25.268Z,13.50
2019-04-06T08:45:29.950Z,13.40
2019-04-06T08:46:34.874Z,13.50
2019-04-06T08:47:39.558Z,13.50
2019-04-06T08:48:44.411Z,13.50
2019-04-06T08:49:49.192Z,13.40
2019-04-06T08:50:53.956Z,13.40
2019-04-06T08:51:59.026Z,13.60
2019-04-06T08:53:03.896Z,13.70
2019-04-06T08:54:08.601Z,13.80
2019-04-06T08:55:13.709Z,13.90
2019-04-06T08:56:18.862Z,13.80
2019-04-06T08:57:23.687Z,13.80
2019-04-06T08:58:28.541Z,13.80
2019-04-06T08:59:33.293Z,13.70
2019-04-06T09:00:38.065Z,13.90
2019-04-06T09:01:42.829Z,13.90
2019-04-06T09:02:47.700Z,14.00
2019-04-06T09:03:52.503Z,14.30
2019-04-06T09:04:57.255Z,14.50
2019-04-06T09:06:02.149Z,14.50
2019-04-06T09:07:06.881Z,14.90
2019-04-06T09:08:11.857Z,15.30
2019-04-06T09:09:16.576Z,15.60
2019-04-06T09:10:21.420Z,15.50
2019-04-06T09:11:26.125Z,15.20
2019-04-06T09:12:30.857Z,15.30
2019-04-06T09:13:35.815Z,15.50
2019-04-06T09:14:40.613Z,15.50
2019-04-06T09:15:45.247Z,15.50
2019-04-06T09:16:50.066Z,15.70
2019-04-06T09:17:55.207Z,15.60
2019-04-06T09:19:00.122Z,15.50
2019-04-06T09:20:05.790Z,15.30
2019-04-06T09:21:10.576Z,15.10
2019-04-06T09:22:16.104Z,14.70
2019-04-06T09:23:20.924Z,14.30
2019-04-06T09:24:25.710Z,14.00
2019-04-06T09:25:30.472Z,14.00
2019-04-06T09:26:35.225Z,14.00
2019-04-06T09:28:44.092Z,13.90
2019-04-06T09:29:49.058Z,14.00
2019-04-06T09:30:54.188Z,14.10
2019-04-06T09:31:58.988Z,14.30
2019-04-06T09:33:03.784Z,14.30
2019-04-06T09:34:08.626Z,14.50
2019-04-06T09:35:13.720Z,14.40
2019-04-06T09:36:18.883Z,14.50
2019-04-06T09:37:23.631Z,14.60
2019-04-06T09:38:28.607Z,14.70
2019-04-06T09:39:33.511Z,14.80
2019-04-06T09:40:40.751Z,14.80
2019-04-06T09:41:45.423Z,14.90
2019-04-06T09:42:50.213Z,14.90
2019-04-06T09:43:54.996Z,15.00
2019-04-06T09:45:18.606Z,15.10
2019-04-06T09:46:51.339Z,15.30
2019-04-06T09:48:15.498Z,15.60
2019-04-06T09:49:38.097Z,15.30
2019-04-06T09:51:00.631Z,15.10
2019-04-06T09:52:24.453Z,14.90
2019-04-06T09:53:46.860Z,15.00
2019-04-06T09:55:02.123Z,14.90
2019-04-06T09:56:17.663Z,15.00
2019-04-06T09:57:47.312Z,15.20
2019-04-06T09:59:01.936Z,15.60
2019-04-06T10:00:33.007Z,15.70
2019-04-06T10:02:02.571Z,15.70
2019-04-06T10:03:24.606Z,15.90
2019-04-06T10:04:48.736Z,16.20
2019-04-06T10:06:18.873Z,16.20
2019-04-06T10:07:39.932Z,15.90
2019-04-06T10:09:03.531Z,15.40
2019-04-06T10:10:27.295Z,15.20
2019-04-06T10:11:57.182Z,15.00
2019-04-06T10:13:23.891Z,15.10
2019-04-06T10:14:38.736Z,15.10
2019-04-06T10:16:05.331Z,15.00
2019-04-06T10:17:38.222Z,15.00
2019-04-06T10:19:02.110Z,15.20
2019-04-06T10:20:24.535Z,15.20
2019-04-06T10:21:57.052Z,15.10
2019-04-06T10:23:23.589Z,15.20
2019-04-06T10:24:49.852Z,15.40
2019-04-06T10:26:16.261Z,15.40
2019-04-06T10:27:31.046Z,15.30
2019-04-06T10:29:00.883Z,15.30
2019-04-06T10:30:24.762Z,15.20
2019-04-06T10:31:48.472Z,15.20
2019-04-06T10:33:01.592Z,15.40
2019-04-06T10:34:40.573Z,15.30
2019-04-06T10:36:13.513Z,15.20
2019-04-06T10:37:42.971Z,15.10
2019-04-06T10:39:09.540Z,15.30
2019-04-06T10:40:36.168Z,15.30
2019-04-06T10:42:09.143Z,15.00
2019-04-06T10:43:34.074Z,14.90
2019-04-06T10:44:56.189Z,14.90
2019-04-06T10:46:28.919Z,14.80
2019-04-06T10:47:50.906Z,14.90
2019-04-06T10:49:23.910Z,15.00
2019-04-06T10:50:45.848Z,15.10
2019-04-06T10:52:07.520Z,15.50
2019-04-06T10:53:29.703Z,15.70
2019-04-06T10:54:52.343Z,15.90
2019-04-06T10:56:03.902Z,16.20
2019-04-06T10:57:27.753Z,16.70
2019-04-06T10:59:03.783Z,16.90
2019-04-06T11:00:33.723Z,16.90
2019-04-06T11:01:57.007Z,16.80
2019-04-06T11:03:14.928Z,16.90
2019-04-06T11:04:41.687Z,16.70
2019-04-06T11:06:00.382Z,16.60
2019-04-06T11:07:13.443Z,16.80
2019-04-06T11:08:35.444Z,17.00
2019-04-06T11:10:11.184Z,17.20
2019-04-06T11:11:49.929Z,17.30
2019-04-06T11:13:22.679Z,16.90
2019-04-06T11:14:37.641Z,16.90
2019-04-06T11:16:04.263Z,17.00
2019-04-06T11:17:33.906Z,16.70
2019-04-06T11:18:56.194Z,16.50
2019-04-06T11:20:08.916Z,16.60
2019-04-06T11:21:27.625Z,16.70
2019-04-06T11:23:04.981Z,16.70
2019-04-06T11:24:31.551Z,16.90
2019-04-06T11:25:55.034Z,17.20
2019-04-06T11:27:21.225Z,17.10
2019-04-06T11:28:43.449Z,16.90
2019-04-06T11:30:15.887Z,16.80
2019-04-06T11:31:44.264Z,16.70
2019-04-06T11:33:06.569Z,16.50
2019-04-06T11:34:42.254Z,16.50
2019-04-06T11:36:08.683Z,16.60
2019-04-06T11:37:32.404Z,16.80
2019-04-06T11:38:54.269Z,16.80
2019-04-06T11:40:13.699Z,16.70
2019-04-06T11:41:28.263Z,16.90
2019-04-06T11:43:00.906Z,17.00
2019-04-06T11:44:27.330Z,17.10
2019-04-06T11:45:51.031Z,16.90
2019-04-06T11:47:17.367Z,16.80
2019-04-06T11:48:53.145Z,16.70
2019-04-06T11:50:20.002Z,16.80
2019-04-06T11:51:50.711Z,16.80
2019-04-06T11:53:17.172Z,17.00
2019-04-06T11:54:50.079Z,17.10
2019-04-06T11:56:16.676Z,16.90
2019-04-06T11:57:34.319Z,17.00
2019-04-06T11:59:10.015Z,16.80
2019-04-06T12:00:27.162Z,16.60
2019-04-06T12:02:05.866Z,16.70
2019-04-06T12:03:19.194Z,16.70
2019-04-06T12:04:46.014Z,16.70
2019-04-06T12:07:24.125Z,16.80
2019-04-06T12:08:37.322Z,16.90
2019-04-06T12:10:13.089Z,17.00
2019-04-06T12:11:39.778Z,17.10
2019-04-06T12:13:05.624Z,17.50
2019-04-06T12:14:24.182Z,17.80
2019-04-06T12:15:37.216Z,17.70
2019-04-06T12:16:50.677Z,17.60
2019-04-06T12:18:12.989Z,17.50
2019-04-06T12:19:32.950Z,17.50
2019-04-06T12:20:52.011Z,17.60
2019-04-06T12:22:18.703Z,17.90
2019-04-06T12:23:40.875Z,18.00
2019-04-06T12:25:11.216Z,17.60
2019-04-06T12:26:23.206Z,17.30
2019-04-06T12:27:46.895Z,16.90
2019-04-06T12:29:04.193Z,16.60
2019-04-06T12:30:37.415Z,16.40
2019-04-06T12:32:02.214Z,16.30
2019-04-06T12:33:22.008Z,16.20
2019-04-06T12:34:54.954Z,16.30
2019-04-06T12:36:30.759Z,16.30
2019-04-06T12:37:42.622Z,16.40
2019-04-06T12:38:55.577Z,16.50
2019-04-06T12:40:22.582Z,16.50
2019-04-06T12:41:55.229Z,16.60
2019-04-06T12:43:18.988Z,16.70
2019-04-06T12:44:45.624Z,16.80
2019-04-06T12:46:08.982Z,16.70
2019-04-06T12:47:32.855Z,16.70
2019-04-06T12:49:02.346Z,16.70
2019-04-06T12:50:16.174Z,16.80
2019-04-06T12:51:46.330Z,16.90
2019-04-06T12:53:05.486Z,16.90
2019-04-06T12:54:27.610Z,17.10
2019-04-06T12:55:49.720Z,17.20
2019-04-06T12:57:12.227Z,17.10
2019-04-06T12:58:44.648Z,17.00
2019-04-06T12:59:54.981Z,17.00
2019-04-06T13:01:16.657Z,17.00
2019-04-06T13:02:38.337Z,17.00
2019-04-06T13:04:00.656Z,16.90
2019-04-06T13:05:23.551Z,16.90
2019-04-06T13:06:56.349Z,16.90
2019-04-06T13:08:12.875Z,16.80
2019-04-06T13:09:42.518Z,16.80
2019-04-06T13:10:54.821Z,16.90
2019-04-06T13:12:24.583Z,16.80
2019-04-06T13:13:44.668Z,16.70
2019-04-06T13:15:05.732Z,16.50
2019-04-06T13:18:22.998Z,16.30
2019-04-06T13:19:46.768Z,16.40
2019-04-06T13:21:09.131Z,16.60
2019-04-06T13:22:51.343Z,16.50
2019-04-06T13:24:07.079Z,16.60
2019-04-06T13:25:39.795Z,16.60
2019-04-06T13:27:00.590Z,16.40
2019-04-06T13:28:20.930Z,16.40
2019-04-06T13:29:43.308Z,16.40
2019-04-06T13:31:08.489Z,16.20
2019-04-06T13:32:41.450Z,16.30
2019-04-06T13:34:02.751Z,16.30
2019-04-06T13:35:35.782Z,16.30
2019-04-06T13:37:02.217Z,16.40
2019-04-06T13:38:37.907Z,16.50
2019-04-06T13:39:59.515Z,16.50
2019-04-06T13:41:23.230Z,16.40
2019-04-06T13:42:46.820Z,16.40
2019-04-06T13:44:01.932Z,16.40
2019-04-06T13:45:24.646Z,16.30
2019-04-06T13:46:39.908Z,16.30
2019-04-06T13:48:10.331Z,16.10
2019-04-06T13:49:52.200Z,16.00
2019-04-06T13:51:08.484Z,15.90
2019-04-06T13:52:19.890Z,15.90
2019-04-06T13:53:58.596Z,15.90
2019-04-06T13:55:37.340Z,16.00
2019-04-06T13:56:53.880Z,16.00
2019-04-06T13:58:32.520Z,16.10
2019-04-06T13:59:47.993Z,16.20
2019-04-06T14:00:59.702Z,16.40
2019-04-06T14:02:20.658Z,16.40
2019-04-06T14:03:46.053Z,16.40
2019-04-06T14:05:09.701Z,16.40
2019-04-06T14:06:33.648Z,16.40
2019-04-06T14:07:51.035Z,16.40
2019-04-06T14:09:10.551Z,16.50
2019-04-06T14:10:37.098Z,16.50
2019-04-06T14:11:56.472Z,16.70
2019-04-06T14:13:38.739Z,16.80
2019-04-06T14:14:49.561Z,16.90
2019-04-06T14:16:14.358Z,17.10
2019-04-06T14:17:36.961Z,17.10
2019-04-06T14:18:59.437Z,17.20
2019-04-06T14:20:22.027Z,17.10
2019-04-06T14:21:45.669Z,17.10
2019-04-06T14:23:03.788Z,17.10
2019-04-06T14:24:46.151Z,17.00
2019-04-06T14:26:06.996Z,17.10
2019-04-06T14:27:45.887Z,17.10
2019-04-06T14:28:57.674Z,17.20
2019-04-06T14:30:16.744Z,17.20
2019-04-06T14:31:33.514Z,17.30
2019-04-06T14:32:52.253Z,17.40
2019-04-06T14:34:27.564Z,17.50
2019-04-06T14:35:49.251Z,17.60
2019-04-06T14:37:28.487Z,17.70
2019-04-06T14:38:52.205Z,17.70
2019-04-06T14:42:00.677Z,17.70
2019-04-06T14:43:36.526Z,17.70
2019-04-06T14:44:54.714Z,17.60
2019-04-06T14:46:20.226Z,17.60
2019-04-06T14:47:52.457Z,17.50
2019-04-06T14:49:28.529Z,17.40
2019-04-06T14:50:36.955Z,17.40
2019-04-06T14:51:58.947Z,17.40
2019-04-06T14:53:31.610Z,17.40
2019-04-06T14:54:43.913Z,17.40
2019-04-06T14:56:10.467Z,17.50
2019-04-06T14:57:23.618Z,17.40
2019-04-06T14:58:53.571Z,17.40
2019-04-06T15:00:26.686Z,17.40
2019-04-06T15:01:58.912Z,17.40
2019-04-06T15:03:19.684Z,17.50
2019-04-06T15:04:35.283Z,17.40
2019-04-06T15:05:56.164Z,17.50
2019-04-06T15:07:19.487Z,17.50
2019-04-06T15:08:43.653Z,17.50
2019-04-06T15:09:57.442Z,17.50
2019-04-06T15:11:29.604Z,17.50
2019-04-06T15:12:58.189Z,17.60
2019-04-06T15:14:33.805Z,17.60
2019-04-06T15:16:03.629Z,17.60
2019-04-06T15:17:18.004Z,17.80
2019-04-06T15:18:39.708Z,17.70
2019-04-06T15:20:01.978Z,17.70
2019-04-06T15:21:12.340Z,17.60
2019-04-06T15:22:34.547Z,17.50
2019-04-06T15:23:58.395Z,17.40
2019-04-06T15:25:20.561Z,17.50
2019-04-06T15:26:37.508Z,17.50
2019-04-06T15:27:51.858Z,17.50
2019-04-06T15:29:15.093Z,17.50
2019-04-06T15:30:50.945Z,17.50
2019-04-06T15:32:23.783Z,17.50
2019-04-06T15:33:45.884Z,17.60
2019-04-06T15:35:21.834Z,17.60
2019-04-06T15:36:40.999Z,17.50
2019-04-06T15:39:34.356Z,17.50
2019-04-06T15:41:01.079Z,17.60
2019-04-06T15:42:22.662Z,17.60
2019-04-06T15:43:58.400Z,17.60
2019-04-06T15:45:20.519Z,17.50
2019-04-06T15:46:39.358Z,17.50